sensor_id;sensor_type;location;lat;lon;timestamp;pressure;altitude;pressure_sealevel;temperature;humidity
63395;BME280;49531;-34.520;150.798;2023-06-19T00:00:32;100459.59;;;14.95;39.60
63395;BME280;49531;-34.520;150.798;2023-06-19T00:02:59;100479.63;;;15.11;39.41
63395;BME280;49531;-34.520;150.798;2023-06-19T00:05:26;100463.72;;;15.09;39.55
63395;BME280;49531;-34.520;150.798;2023-06-19T00:07:54;100462.91;;;15.20;39.44
63395;BME280;49531;-34.520;150.798;2023-06-19T00:10:21;100452.63;;;15.17;39.22
63395;BME280;49531;-34.520;150.798;2023-06-19T00:12:48;100459.88;;;15.28;39.30
63395;BME280;49531;-34.520;150.798;2023-06-19T00:15:15;100452.66;;;15.41;39.07
63395;BME280;49531;-34.520;150.798;2023-06-19T00:17:42;100461.91;;;15.45;39.04
63395;BME280;49531;-34.520;150.798;2023-06-19T00:20:10;100442.00;;;15.46;38.91
63395;BME280;49531;-34.520;150.798;2023-06-19T00:22:37;100461.09;;;15.56;38.60
63395;BME280;49531;-34.520;150.798;2023-06-19T00:25:04;100446.72;;;15.62;38.47
63395;BME280;49531;-34.520;150.798;2023-06-19T00:27:32;100447.28;;;15.64;38.23
63395;BME280;49531;-34.520;150.798;2023-06-19T00:29:59;100452.44;;;15.65;38.18
63395;BME280;49531;-34.520;150.798;2023-06-19T00:32:28;100436.06;;;15.67;38.07
63395;BME280;49531;-34.520;150.798;2023-06-19T00:34:55;100432.91;;;15.70;37.51
63395;BME280;49531;-34.520;150.798;2023-06-19T00:37:23;100427.16;;;15.78;37.48
63395;BME280;49531;-34.520;150.798;2023-06-19T00:39:50;100408.19;;;15.73;37.60
63395;BME280;49531;-34.520;150.798;2023-06-19T00:42:17;100404.34;;;15.81;37.43
63395;BME280;49531;-34.520;150.798;2023-06-19T00:44:44;100400.81;;;15.80;37.48
63395;BME280;49531;-34.520;150.798;2023-06-19T00:47:11;100411.22;;;15.88;37.30
63395;BME280;49531;-34.520;150.798;2023-06-19T00:49:39;100414.63;;;15.84;37.47
63395;BME280;49531;-34.520;150.798;2023-06-19T00:52:06;100390.53;;;15.77;37.57
63395;BME280;49531;-34.520;150.798;2023-06-19T00:54:34;100416.38;;;15.90;37.65
63395;BME280;49531;-34.520;150.798;2023-06-19T00:57:01;100419.19;;;15.95;37.43
63395;BME280;49531;-34.520;150.798;2023-06-19T00:59:29;100401.97;;;15.96;37.17
63395;BME280;49531;-34.520;150.798;2023-06-19T01:01:57;100398.22;;;15.97;37.42
63395;BME280;49531;-34.520;150.798;2023-06-19T01:04:24;100406.63;;;16.00;37.30
63395;BME280;49531;-34.520;150.798;2023-06-19T01:07:00;100417.38;;;16.12;37.17
63395;BME280;49531;-34.520;150.798;2023-06-19T01:09:34;100402.75;;;16.08;37.40
63395;BME280;49531;-34.520;150.798;2023-06-19T01:12:10;100387.50;;;16.14;37.24
63395;BME280;49531;-34.520;150.798;2023-06-19T01:14:54;100408.34;;;16.18;37.21
63395;BME280;49531;-34.520;150.798;2023-06-19T01:17:27;100370.28;;;16.15;37.28
63395;BME280;49531;-34.520;150.798;2023-06-19T01:19:57;100341.69;;;16.14;36.98
63395;BME280;49531;-34.520;150.798;2023-06-19T01:22:28;100353.59;;;16.29;37.32
63395;BME280;49531;-34.520;150.798;2023-06-19T01:24:56;100341.53;;;16.32;37.29
63395;BME280;49531;-34.520;150.798;2023-06-19T01:27:25;100327.81;;;16.33;37.18
63395;BME280;49531;-34.520;150.798;2023-06-19T01:29:57;100335.31;;;16.31;37.10
63395;BME280;49531;-34.520;150.798;2023-06-19T01:35:19;100328.72;;;16.39;36.20
63395;BME280;49531;-34.520;150.798;2023-06-19T01:37:48;100311.47;;;16.40;36.20
63395;BME280;49531;-34.520;150.798;2023-06-19T01:40:17;100296.28;;;16.34;36.45
63395;BME280;49531;-34.520;150.798;2023-06-19T01:42:48;100303.38;;;16.40;36.25
63395;BME280;49531;-34.520;150.798;2023-06-19T01:45:15;100289.75;;;16.30;36.26
63395;BME280;49531;-34.520;150.798;2023-06-19T01:47:42;100308.59;;;16.47;36.29
63395;BME280;49531;-34.520;150.798;2023-06-19T01:50:10;100311.16;;;16.53;36.12
63395;BME280;49531;-34.520;150.798;2023-06-19T01:52:38;100297.91;;;16.52;35.83
63395;BME280;49531;-34.520;150.798;2023-06-19T01:55:06;100288.19;;;16.51;36.03
63395;BME280;49531;-34.520;150.798;2023-06-19T01:57:35;100302.34;;;16.58;35.96
63395;BME280;49531;-34.520;150.798;2023-06-19T02:00:04;100272.69;;;16.58;36.05
63395;BME280;49531;-34.520;150.798;2023-06-19T02:02:34;100285.91;;;16.59;36.08
63395;BME280;49531;-34.520;150.798;2023-06-19T02:05:01;100275.59;;;16.68;36.03
63395;BME280;49531;-34.520;150.798;2023-06-19T02:07:28;100251.31;;;16.68;36.17
63395;BME280;49531;-34.520;150.798;2023-06-19T02:09:55;100238.06;;;16.66;36.20
63395;BME280;49531;-34.520;150.798;2023-06-19T02:12:23;100244.28;;;16.67;36.10
63395;BME280;49531;-34.520;150.798;2023-06-19T02:14:50;100214.75;;;16.60;36.04
63395;BME280;49531;-34.520;150.798;2023-06-19T02:17:17;100230.63;;;16.74;35.93
63395;BME280;49531;-34.520;150.798;2023-06-19T02:19:44;100235.22;;;16.73;35.93
63395;BME280;49531;-34.520;150.798;2023-06-19T02:22:11;100245.75;;;16.75;35.68
63395;BME280;49531;-34.520;150.798;2023-06-19T02:24:39;100245.19;;;16.73;35.75
63395;BME280;49531;-34.520;150.798;2023-06-19T02:27:06;100237.59;;;16.70;35.73
63395;BME280;49531;-34.520;150.798;2023-06-19T02:29:34;100235.22;;;16.73;35.91
63395;BME280;49531;-34.520;150.798;2023-06-19T02:32:01;100255.47;;;16.76;35.86
63395;BME280;49531;-34.520;150.798;2023-06-19T02:34:29;100256.88;;;16.78;35.88
63395;BME280;49531;-34.520;150.798;2023-06-19T02:36:56;100250.97;;;16.81;36.01
63395;BME280;49531;-34.520;150.798;2023-06-19T02:39:23;100245.31;;;16.83;36.07
63395;BME280;49531;-34.520;150.798;2023-06-19T02:41:50;100251.19;;;16.80;36.02
63395;BME280;49531;-34.520;150.798;2023-06-19T02:44:18;100269.19;;;16.91;35.92
63395;BME280;49531;-34.520;150.798;2023-06-19T02:46:45;100271.13;;;16.95;35.87
63395;BME280;49531;-34.520;150.798;2023-06-19T02:49:12;100260.50;;;16.89;35.84
63395;BME280;49531;-34.520;150.798;2023-06-19T02:51:39;100260.75;;;16.87;35.63
63395;BME280;49531;-34.520;150.798;2023-06-19T02:54:06;100253.56;;;16.93;35.79
63395;BME280;49531;-34.520;150.798;2023-06-19T02:56:33;100245.16;;;16.89;35.75
63395;BME280;49531;-34.520;150.798;2023-06-19T02:59:00;100261.16;;;16.96;35.82
63395;BME280;49531;-34.520;150.798;2023-06-19T03:01:28;100251.19;;;16.96;35.62
63395;BME280;49531;-34.520;150.798;2023-06-19T03:03:55;100234.69;;;16.93;35.39
63395;BME280;49531;-34.520;150.798;2023-06-19T03:06:22;100242.59;;;16.99;35.47
63395;BME280;49531;-34.520;150.798;2023-06-19T03:08:49;100225.59;;;16.99;35.39
63395;BME280;49531;-34.520;150.798;2023-06-19T03:11:16;100227.56;;;17.04;35.21
63395;BME280;49531;-34.520;150.798;2023-06-19T03:13:50;100224.53;;;17.00;35.37
63395;BME280;49531;-34.520;150.798;2023-06-19T03:16:19;100227.81;;;17.02;34.74
63395;BME280;49531;-34.520;150.798;2023-06-19T03:18:46;100218.31;;;16.99;34.97
63395;BME280;49531;-34.520;150.798;2023-06-19T03:21:14;100205.00;;;16.93;35.10
63395;BME280;49531;-34.520;150.798;2023-06-19T03:23:41;100184.41;;;16.87;34.97
63395;BME280;49531;-34.520;150.798;2023-06-19T03:26:09;100211.38;;;17.04;35.08
63395;BME280;49531;-34.520;150.798;2023-06-19T03:28:36;100199.44;;;16.99;35.24
63395;BME280;49531;-34.520;150.798;2023-06-19T03:31:04;100204.09;;;17.04;35.26
63395;BME280;49531;-34.520;150.798;2023-06-19T03:33:31;100207.84;;;17.03;35.41
63395;BME280;49531;-34.520;150.798;2023-06-19T03:35:58;100192.16;;;17.00;35.35
63395;BME280;49531;-34.520;150.798;2023-06-19T03:38:25;100184.00;;;16.95;35.52
63395;BME280;49531;-34.520;150.798;2023-06-19T03:40:52;100185.63;;;16.96;35.49
63395;BME280;49531;-34.520;150.798;2023-06-19T03:43:20;100176.47;;;16.97;35.68
63395;BME280;49531;-34.520;150.798;2023-06-19T03:45:47;100179.25;;;17.02;35.43
63395;BME280;49531;-34.520;150.798;2023-06-19T03:48:16;100164.19;;;17.06;35.36
63395;BME280;49531;-34.520;150.798;2023-06-19T03:50:43;100169.09;;;17.09;35.13
63395;BME280;49531;-34.520;150.798;2023-06-19T03:53:10;100165.19;;;17.00;35.15
63395;BME280;49531;-34.520;150.798;2023-06-19T03:55:37;100169.84;;;17.05;35.01
63395;BME280;49531;-34.520;150.798;2023-06-19T03:58:04;100162.16;;;16.96;35.02
63395;BME280;49531;-34.520;150.798;2023-06-19T04:00:32;100128.78;;;16.81;34.71
63395;BME280;49531;-34.520;150.798;2023-06-19T04:02:59;100154.41;;;17.00;34.81
63395;BME280;49531;-34.520;150.798;2023-06-19T04:05:27;100166.38;;;17.09;34.52
63395;BME280;49531;-34.520;150.798;2023-06-19T04:07:54;100162.06;;;17.08;34.58
63395;BME280;49531;-34.520;150.798;2023-06-19T04:10:21;100167.44;;;17.08;34.74
63395;BME280;49531;-34.520;150.798;2023-06-19T04:12:48;100154.22;;;17.07;34.34
63395;BME280;49531;-34.520;150.798;2023-06-19T04:15:15;100148.50;;;17.03;34.44
63395;BME280;49531;-34.520;150.798;2023-06-19T04:17:42;100143.72;;;17.10;34.59
63395;BME280;49531;-34.520;150.798;2023-06-19T04:20:10;100151.84;;;17.10;34.10
63395;BME280;49531;-34.520;150.798;2023-06-19T04:22:39;100145.31;;;17.06;34.14
63395;BME280;49531;-34.520;150.798;2023-06-19T04:25:08;100149.94;;;17.11;34.18
63395;BME280;49531;-34.520;150.798;2023-06-19T04:27:36;100152.97;;;17.14;34.05
63395;BME280;49531;-34.520;150.798;2023-06-19T04:30:04;100155.59;;;17.09;34.15
63395;BME280;49531;-34.520;150.798;2023-06-19T04:32:33;100153.97;;;17.08;34.35
63395;BME280;49531;-34.520;150.798;2023-06-19T04:35:01;100155.53;;;17.04;34.31
63395;BME280;49531;-34.520;150.798;2023-06-19T04:37:29;100159.28;;;17.03;33.90
63395;BME280;49531;-34.520;150.798;2023-06-19T04:39:56;100145.56;;;17.05;34.25
63395;BME280;49531;-34.520;150.798;2023-06-19T04:42:25;100152.56;;;17.06;34.12
63395;BME280;49531;-34.520;150.798;2023-06-19T04:44:52;100159.66;;;17.12;33.84
63395;BME280;49531;-34.520;150.798;2023-06-19T04:47:22;100137.53;;;17.10;33.58
63395;BME280;49531;-34.520;150.798;2023-06-19T04:49:50;100151.31;;;17.13;33.45
63395;BME280;49531;-34.520;150.798;2023-06-19T04:52:18;100148.50;;;17.03;33.33
63395;BME280;49531;-34.520;150.798;2023-06-19T04:54:45;100172.41;;;17.16;33.12
63395;BME280;49531;-34.520;150.798;2023-06-19T04:57:14;100170.78;;;17.15;33.37
63395;BME280;49531;-34.520;150.798;2023-06-19T04:59:43;100167.19;;;17.10;33.46
63395;BME280;49531;-34.520;150.798;2023-06-19T05:02:11;100155.59;;;17.09;33.83
63395;BME280;49531;-34.520;150.798;2023-06-19T05:04:38;100163.69;;;17.09;33.72
63395;BME280;49531;-34.520;150.798;2023-06-19T05:07:09;100163.44;;;17.11;33.99
63395;BME280;49531;-34.520;150.798;2023-06-19T05:09:39;100154.22;;;17.07;33.82
63395;BME280;49531;-34.520;150.798;2023-06-19T05:12:06;100160.41;;;17.07;34.22
63395;BME280;49531;-34.520;150.798;2023-06-19T05:14:33;100160.41;;;17.07;34.25
63395;BME280;49531;-34.520;150.798;2023-06-19T05:17:00;100154.03;;;17.13;33.91
63395;BME280;49531;-34.520;150.798;2023-06-19T05:19:27;100152.91;;;17.09;33.94
63395;BME280;49531;-34.520;150.798;2023-06-19T05:21:54;100158.91;;;17.16;33.85
63395;BME280;49531;-34.520;150.798;2023-06-19T05:24:22;100149.13;;;17.10;34.20
63395;BME280;49531;-34.520;150.798;2023-06-19T05:26:49;100162.56;;;17.05;34.27
63395;BME280;49531;-34.520;150.798;2023-06-19T05:29:16;100162.38;;;17.12;33.97
63395;BME280;49531;-34.520;150.798;2023-06-19T05:31:43;100161.06;;;17.14;33.83
63395;BME280;49531;-34.520;150.798;2023-06-19T05:34:10;100171.84;;;17.14;33.56
63395;BME280;49531;-34.520;150.798;2023-06-19T05:36:37;100168.25;;;17.09;33.61
63395;BME280;49531;-34.520;150.798;2023-06-19T05:39:04;100171.53;;;17.11;33.85
63395;BME280;49531;-34.520;150.798;2023-06-19T05:41:31;100200.41;;;17.10;33.89
63395;BME280;49531;-34.520;150.798;2023-06-19T05:43:59;100183.06;;;17.06;33.68
63395;BME280;49531;-34.520;150.798;2023-06-19T05:46:26;100173.22;;;17.17;33.64
63395;BME280;49531;-34.520;150.798;2023-06-19T05:48:53;100172.34;;;17.11;33.52
63395;BME280;49531;-34.520;150.798;2023-06-19T05:51:21;100176.69;;;17.12;33.74
63395;BME280;49531;-34.520;150.798;2023-06-19T05:53:48;100159.03;;;17.05;33.65
63395;BME280;49531;-34.520;150.798;2023-06-19T05:56:17;100168.44;;;17.02;33.90
63395;BME280;49531;-34.520;150.798;2023-06-19T05:58:44;100169.41;;;17.13;34.00
63395;BME280;49531;-34.520;150.798;2023-06-19T06:01:11;100173.41;;;17.10;33.66
63395;BME280;49531;-34.520;150.798;2023-06-19T06:03:38;100169.59;;;17.06;33.94
63395;BME280;49531;-34.520;150.798;2023-06-19T06:06:05;100182.06;;;17.12;33.61
63395;BME280;49531;-34.520;150.798;2023-06-19T06:08:32;100171.66;;;16.99;33.74
63395;BME280;49531;-34.520;150.798;2023-06-19T06:10:59;100184.63;;;17.02;33.54
63395;BME280;49531;-34.520;150.798;2023-06-19T06:13:27;100185.69;;;17.01;33.55
63395;BME280;49531;-34.520;150.798;2023-06-19T06:15:54;100172.22;;;17.01;33.67
63395;BME280;49531;-34.520;150.798;2023-06-19T06:18:21;100185.78;;;17.06;33.60
63395;BME280;49531;-34.520;150.798;2023-06-19T06:20:48;100188.47;;;17.06;33.51
63395;BME280;49531;-34.520;150.798;2023-06-19T06:23:15;100179.94;;;17.14;33.04
63395;BME280;49531;-34.520;150.798;2023-06-19T06:25:43;100172.41;;;17.16;32.77
63395;BME280;49531;-34.520;150.798;2023-06-19T06:28:12;100187.53;;;17.17;33.29
63395;BME280;49531;-34.520;150.798;2023-06-19T06:30:40;100182.56;;;17.09;33.52
63395;BME280;49531;-34.520;150.798;2023-06-19T06:33:08;100178.28;;;16.91;34.04
63395;BME280;49531;-34.520;150.798;2023-06-19T06:35:35;100205.50;;;16.90;34.43
63395;BME280;49531;-34.520;150.798;2023-06-19T06:38:03;100215.78;;;16.93;34.41
63395;BME280;49531;-34.520;150.798;2023-06-19T06:40:30;100211.97;;;16.89;34.61
63395;BME280;49531;-34.520;150.798;2023-06-19T06:42:57;100225.44;;;16.89;34.29
63395;BME280;49531;-34.520;150.798;2023-06-19T06:45:24;100201.88;;;16.79;34.30
63395;BME280;49531;-34.520;150.798;2023-06-19T06:47:51;100211.97;;;16.89;33.66
63395;BME280;49531;-34.520;150.798;2023-06-19T06:50:18;100214.25;;;16.80;35.10
63395;BME280;49531;-34.520;150.798;2023-06-19T06:52:46;100215.06;;;16.81;34.54
63395;BME280;49531;-34.520;150.798;2023-06-19T06:55:13;100238.13;;;16.88;34.40
63395;BME280;49531;-34.520;150.798;2023-06-19T06:57:40;100223.31;;;16.91;34.43
63395;BME280;49531;-34.520;150.798;2023-06-19T07:00:08;100218.06;;;16.79;34.89
63395;BME280;49531;-34.520;150.798;2023-06-19T07:02:38;100243.75;;;16.87;34.84
63395;BME280;49531;-34.520;150.798;2023-06-19T07:05:09;100253.72;;;16.86;34.88
63395;BME280;49531;-34.520;150.798;2023-06-19T07:07:37;100251.84;;;16.87;34.47
63395;BME280;49531;-34.520;150.798;2023-06-19T07:10:04;100259.44;;;16.90;34.70
63395;BME280;49531;-34.520;150.798;2023-06-19T07:12:32;100256.09;;;16.83;34.43
63395;BME280;49531;-34.520;150.798;2023-06-19T07:14:59;100257.81;;;16.89;34.67
63395;BME280;49531;-34.520;150.798;2023-06-19T07:17:26;100261.09;;;16.91;34.05
63395;BME280;49531;-34.520;150.798;2023-06-19T07:19:53;100246.69;;;16.85;34.18
63395;BME280;49531;-34.520;150.798;2023-06-19T07:22:20;100243.84;;;16.92;34.12
63395;BME280;49531;-34.520;150.798;2023-06-19T07:24:47;100240.56;;;16.90;34.12
63395;BME280;49531;-34.520;150.798;2023-06-19T07:27:14;100220.22;;;16.82;34.39
63395;BME280;49531;-34.520;150.798;2023-06-19T07:29:43;100215.91;;;16.81;34.71
63395;BME280;49531;-34.520;150.798;2023-06-19T07:32:11;100203.44;;;16.75;34.49
63395;BME280;49531;-34.520;150.798;2023-06-19T07:34:38;100215.06;;;16.81;34.65
63395;BME280;49531;-34.520;150.798;2023-06-19T07:37:05;100207.25;;;16.79;34.64
63395;BME280;49531;-34.520;150.798;2023-06-19T07:39:32;100209.16;;;16.79;34.45
63395;BME280;49531;-34.520;150.798;2023-06-19T07:41:59;100209.16;;;16.79;34.33
63395;BME280;49531;-34.520;150.798;2023-06-19T07:44:26;100200.72;;;16.75;34.69
63395;BME280;49531;-34.520;150.798;2023-06-19T07:46:53;100195.59;;;16.74;34.28
63395;BME280;49531;-34.520;150.798;2023-06-19T07:49:20;100205.56;;;16.73;34.44
63395;BME280;49531;-34.520;150.798;2023-06-19T07:51:47;100217.16;;;16.74;34.58
63395;BME280;49531;-34.520;150.798;2023-06-19T07:54:14;100177.69;;;16.51;34.37
63395;BME280;49531;-34.520;150.798;2023-06-19T07:56:42;100214.28;;;16.63;34.58
63395;BME280;49531;-34.520;150.798;2023-06-19T07:59:09;100208.75;;;16.70;35.31
63395;BME280;49531;-34.520;150.798;2023-06-19T08:01:36;100214.94;;;16.71;35.42
63395;BME280;49531;-34.520;150.798;2023-06-19T08:04:03;100219.34;;;16.77;35.20
63395;BME280;49531;-34.520;150.798;2023-06-19T08:06:30;100216.47;;;16.83;35.23
63395;BME280;49531;-34.520;150.798;2023-06-19T08:08:57;100221.59;;;16.85;35.28
63395;BME280;49531;-34.520;150.798;2023-06-19T08:11:24;100236.81;;;16.91;35.19
63395;BME280;49531;-34.520;150.798;2023-06-19T08:13:51;100248.91;;;16.88;35.34
63395;BME280;49531;-34.520;150.798;2023-06-19T08:16:19;100265.09;;;16.88;35.24
63395;BME280;49531;-34.520;150.798;2023-06-19T08:18:46;100269.50;;;16.94;35.25
63395;BME280;49531;-34.520;150.798;2023-06-19T08:21:14;100278.50;;;17.00;35.11
63395;BME280;49531;-34.520;150.798;2023-06-19T08:23:41;100295.06;;;17.09;35.02
63395;BME280;49531;-34.520;150.798;2023-06-19T08:26:11;100290.50;;;17.09;34.96
63395;BME280;49531;-34.520;150.798;2023-06-19T08:28:38;100294.19;;;17.03;35.12
63395;BME280;49531;-34.520;150.798;2023-06-19T08:31:07;100296.97;;;17.08;35.13
63395;BME280;49531;-34.520;150.798;2023-06-19T08:33:35;100297.44;;;17.05;35.09
63395;BME280;49531;-34.520;150.798;2023-06-19T08:36:03;100313.81;;;17.15;35.14
63395;BME280;49531;-34.520;150.798;2023-06-19T08:38:30;100315.13;;;17.13;35.22
63395;BME280;49531;-34.520;150.798;2023-06-19T08:40:57;100296.00;;;16.97;35.37
63395;BME280;49531;-34.520;150.798;2023-06-19T08:43:24;100317.47;;;17.09;35.26
63395;BME280;49531;-34.520;150.798;2023-06-19T08:46:09;100332.78;;;17.04;35.48
63395;BME280;49531;-34.520;150.798;2023-06-19T08:48:37;100340.78;;;16.98;35.60
63395;BME280;49531;-34.520;150.798;2023-06-19T08:51:05;100336.13;;;16.94;35.60
63395;BME280;49531;-34.520;150.798;2023-06-19T08:53:44;100360.41;;;17.11;35.55
63395;BME280;49531;-34.520;150.798;2023-06-19T08:56:11;100356.16;;;17.15;35.35
63395;BME280;49531;-34.520;150.798;2023-06-19T08:58:38;100358.34;;;17.01;35.66
63395;BME280;49531;-34.520;150.798;2023-06-19T09:01:05;100375.28;;;17.13;35.60
63395;BME280;49531;-34.520;150.798;2023-06-19T09:03:32;100335.06;;;16.95;35.33
63395;BME280;49531;-34.520;150.798;2023-06-19T09:06:14;100360.56;;;17.04;35.71
63395;BME280;49531;-34.520;150.798;2023-06-19T09:08:41;100371.53;;;17.14;35.48
63395;BME280;49531;-34.520;150.798;2023-06-19T09:11:08;100383.63;;;17.12;35.57
63395;BME280;49531;-34.520;150.798;2023-06-19T09:13:35;100399.50;;;17.08;35.70
63395;BME280;49531;-34.520;150.798;2023-06-19T09:16:06;100402.84;;;16.98;35.74
63395;BME280;49531;-34.520;150.798;2023-06-19T09:18:45;100416.66;;;17.02;35.96
63395;BME280;49531;-34.520;150.798;2023-06-19T09:21:18;100409.78;;;16.94;36.07
63395;BME280;49531;-34.520;150.798;2023-06-19T09:23:46;100421.38;;;16.95;36.14
63395;BME280;49531;-34.520;150.798;2023-06-19T09:26:15;100419.75;;;16.94;36.27
63395;BME280;49531;-34.520;150.798;2023-06-19T09:28:43;100421.06;;;16.91;36.45
63395;BME280;49531;-34.520;150.798;2023-06-19T09:31:10;100430.22;;;16.90;36.70
63395;BME280;49531;-34.520;150.798;2023-06-19T09:33:40;100443.84;;;16.84;36.95
63395;BME280;49531;-34.520;150.798;2023-06-19T09:36:07;100432.22;;;16.83;37.04
63395;BME280;49531;-34.520;150.798;2023-06-19T09:38:36;100394.56;;;16.72;37.30
63395;BME280;49531;-34.520;150.798;2023-06-19T09:41:06;100429.19;;;16.80;37.18
63395;BME280;49531;-34.520;150.798;2023-06-19T09:43:44;100409.44;;;16.74;37.29
63395;BME280;49531;-34.520;150.798;2023-06-19T09:46:14;100403.72;;;16.71;37.33
63395;BME280;49531;-34.520;150.798;2023-06-19T09:48:44;100374.41;;;16.62;37.37
63395;BME280;49531;-34.520;150.798;2023-06-19T09:51:18;100388.69;;;16.75;37.52
63395;BME280;49531;-34.520;150.798;2023-06-19T09:53:46;100394.22;;;16.85;37.70
63395;BME280;49531;-34.520;150.798;2023-06-19T09:56:15;100378.97;;;16.74;37.44
63395;BME280;49531;-34.520;150.798;2023-06-19T09:58:43;100381.66;;;16.74;37.59
63395;BME280;49531;-34.520;150.798;2023-06-19T10:01:12;100384.09;;;16.75;37.72
63395;BME280;49531;-34.520;150.798;2023-06-19T10:03:40;100362.19;;;16.72;37.66
63395;BME280;49531;-34.520;150.798;2023-06-19T10:06:13;100370.63;;;16.75;37.57
63395;BME280;49531;-34.520;150.798;2023-06-19T10:08:43;100395.72;;;16.76;37.54
63395;BME280;49531;-34.520;150.798;2023-06-19T10:11:11;100379.53;;;16.76;37.79
63395;BME280;49531;-34.520;150.798;2023-06-19T10:13:41;100385.31;;;16.67;37.81
63395;BME280;49531;-34.520;150.798;2023-06-19T10:16:20;100388.84;;;16.68;37.98
63395;BME280;49531;-34.520;150.798;2023-06-19T10:18:48;100366.78;;;16.71;38.18
63395;BME280;49531;-34.520;150.798;2023-06-19T10:21:17;100374.78;;;16.66;38.35
63395;BME280;49531;-34.520;150.798;2023-06-19T10:23:54;100363.44;;;16.52;38.67
63395;BME280;49531;-34.520;150.798;2023-06-19T10:26:30;100385.09;;;16.57;38.57
63395;BME280;49531;-34.520;150.798;2023-06-19T10:28:57;100370.13;;;16.50;38.71
63395;BME280;49531;-34.520;150.798;2023-06-19T10:31:25;100361.06;;;16.56;38.55
63395;BME280;49531;-34.520;150.798;2023-06-19T10:33:52;100340.84;;;16.42;38.54
63395;BME280;49531;-34.520;150.798;2023-06-19T10:36:21;100366.03;;;16.47;38.58
63395;BME280;49531;-34.520;150.798;2023-06-19T10:38:50;100345.94;;;16.38;38.65
63395;BME280;49531;-34.520;150.798;2023-06-19T10:41:22;100369.16;;;16.39;38.72
63395;BME280;49531;-34.520;150.798;2023-06-19T10:43:54;100365.34;;;16.40;38.54
63395;BME280;49531;-34.520;150.798;2023-06-19T10:46:22;100375.91;;;16.42;38.51
63395;BME280;49531;-34.520;150.798;2023-06-19T10:48:50;100386.19;;;16.45;38.50
63395;BME280;49531;-34.520;150.798;2023-06-19T10:51:19;100343.72;;;16.35;38.46
63395;BME280;49531;-34.520;150.798;2023-06-19T10:53:46;100352.69;;;16.41;38.47
63395;BME280;49531;-34.520;150.798;2023-06-19T10:56:14;100352.06;;;16.33;38.30
63395;BME280;49531;-34.520;150.798;2023-06-19T10:58:41;100355.09;;;16.37;38.39
63395;BME280;49531;-34.520;150.798;2023-06-19T11:01:08;100371.56;;;16.41;38.13
63395;BME280;49531;-34.520;150.798;2023-06-19T11:03:35;100378.78;;;16.35;38.03
63395;BME280;49531;-34.520;150.798;2023-06-19T11:06:02;100388.88;;;16.28;37.96
63395;BME280;49531;-34.520;150.798;2023-06-19T11:08:29;100398.97;;;16.21;38.02
63395;BME280;49531;-34.520;150.798;2023-06-19T11:10:57;100405.50;;;16.25;37.94
63395;BME280;49531;-34.520;150.798;2023-06-19T11:13:24;100398.97;;;16.21;37.98
63395;BME280;49531;-34.520;150.798;2023-06-19T11:15:51;100397.09;;;16.21;37.85
63395;BME280;49531;-34.520;150.798;2023-06-19T11:18:19;100401.31;;;16.17;37.79
63395;BME280;49531;-34.520;150.798;2023-06-19T11:20:51;100403.19;;;16.17;37.92
63395;BME280;49531;-34.520;150.798;2023-06-19T11:23:27;100396.97;;;16.16;37.91
63395;BME280;49531;-34.520;150.798;2023-06-19T11:26:01;100385.03;;;16.12;37.89
63395;BME280;49531;-34.520;150.798;2023-06-19T11:28:29;100377.91;;;16.06;37.91
63395;BME280;49531;-34.520;150.798;2023-06-19T11:31:01;100389.16;;;16.03;37.82
63395;BME280;49531;-34.520;150.798;2023-06-19T11:33:29;100376.44;;;15.98;37.82
63395;BME280;49531;-34.520;150.798;2023-06-19T11:36:02;100388.81;;;15.99;38.08
63395;BME280;49531;-34.520;150.798;2023-06-19T11:38:29;100376.09;;;15.95;37.84
63395;BME280;49531;-34.520;150.798;2023-06-19T11:40:57;100381.72;;;15.93;37.94
63395;BME280;49531;-34.520;150.798;2023-06-19T11:43:26;100373.63;;;15.93;37.83
63395;BME280;49531;-34.520;150.798;2023-06-19T11:45:59;100360.44;;;15.80;38.16
63395;BME280;49531;-34.520;150.798;2023-06-19T11:48:28;100359.25;;;15.88;37.87
63395;BME280;49531;-34.520;150.798;2023-06-19T11:50:55;100371.53;;;15.84;38.05
63395;BME280;49531;-34.520;150.798;2023-06-19T11:53:23;100371.19;;;15.80;38.06
63395;BME280;49531;-34.520;150.798;2023-06-19T11:55:51;100354.94;;;15.75;37.96
63395;BME280;49531;-34.520;150.798;2023-06-19T11:58:19;100354.94;;;15.75;37.97
63395;BME280;49531;-34.520;150.798;2023-06-19T12:00:48;100364.41;;;15.78;37.70
63395;BME280;49531;-34.520;150.798;2023-06-19T12:03:15;100367.81;;;15.73;37.78
63395;BME280;49531;-34.520;150.798;2023-06-19T12:05:42;100363.97;;;15.69;37.64
63395;BME280;49531;-34.520;150.798;2023-06-19T12:08:10;100385.38;;;15.64;37.64
63395;BME280;49531;-34.520;150.798;2023-06-19T12:10:37;100376.72;;;15.62;37.66
63395;BME280;49531;-34.520;150.798;2023-06-19T12:13:04;100400.34;;;15.60;37.68
63395;BME280;49531;-34.520;150.798;2023-06-19T12:15:31;100417.34;;;15.60;37.52
63395;BME280;49531;-34.520;150.798;2023-06-19T12:17:58;100408.56;;;15.53;37.58
63395;BME280;49531;-34.520;150.798;2023-06-19T12:20:25;100409.53;;;15.59;37.62
63395;BME280;49531;-34.520;150.798;2023-06-19T12:22:53;100411.13;;;15.60;37.54
63395;BME280;49531;-34.520;150.798;2023-06-19T12:25:20;100431.28;;;15.57;37.48
63395;BME280;49531;-34.520;150.798;2023-06-19T12:27:48;100420.38;;;15.52;37.47